NOAA Web Site Link Tides and Currents Home Page Transparent placeholder image

PORTS® Data Listing: 8447386 Fall River, MA

CO-OPS RAW PORTS DATA

************************      PRELIMINARY DATA      ************************** 

     THIS RAW DATA HAS NOT BEEN SUBJECT TO THE NATIONAL OCEAN SERVICE'S        
     QUALITY CONTROL OR QUALITY ASSURANCE PROCEDURES AND DOES NOT MEET         
     THE CRITERIA AND STANDARDS OF OFFICIAL NATIONAL OCEAN SERVICE             
     DATA.  IT IS RELEASED FOR LIMITED PUBLIC USE AS PRELIMINARY DATA TO       
     BE USED ONLY WITH APPROPRIATE CAUTION.                                    

************************      PRELIMINARY DATA      ************************** 


       CD   -   Calendar date
       T    -   Time
       TZ   -   Timezone
       PW   -   Predicted water level (feet above MLLW)
       OW   -   Observed water level (feet above MLLW)
       WS   -   Wind speed (knots)
       WD   -   Wind direction (degrees true)
       WG   -   Wind gust (knots)
       AT   -   Air temperature (degrees farenheit)
       WT   -   Water temperature (degrees farenheit)
       AP   -   Air pressure (millibars)
       SA   -   Salinty (PSU - Practical Salinity Units)
       SG   -   Specific gravity
       RH   -   Relative humidity
       AG   -   Air gap (feet)
       VI   -   Visibility (nautical miles)

       ** NOTE **
       A variable that has its data fields filled with "9"s, indicates that
       data was not collected for that sample period.
       **********


STATION NAME: Fall River (8447386)
****************************************************************************************************
    CD       T    TZ    PW     OW    WS   WD   WG    AT    WT    AP    SA    SG     RH    AG   VI
****************************************************************************************************
2019/07/21 11:36 EDT    4.16   4.77 -999 -999 -999  84.7  79.9 1007.9 -9.9 -9.999 -99.9 -99.99 -9.99
2019/07/21 11:42 EDT    4.19   4.78 -999 -999 -999  83.8  80.1 1007.9 -9.9 -9.999 -99.9 -99.99 -9.99
2019/07/21 11:48 EDT    4.20   4.77 -999 -999 -999  84.4  80.1 1007.8 -9.9 -9.999 -99.9 -99.99 -9.99
2019/07/21 11:54 EDT    4.22   4.75 -999 -999 -999  85.3  80.2 1007.7 -9.9 -9.999 -99.9 -99.99 -9.99
2019/07/21 12:00 EDT    4.22   4.74 -999 -999 -999  85.6  80.2 1007.6 -9.9 -9.999 -99.9 -99.99 -9.99
2019/07/21 12:06 EDT    4.22   4.72 -999 -999 -999  86.4  80.2 1007.6 -9.9 -9.999 -99.9 -99.99 -9.99
2019/07/21 12:12 EDT    4.21   4.67 -999 -999 -999  86.5  80.2 1007.5 -9.9 -9.999 -99.9 -99.99 -9.99
2019/07/21 12:18 EDT    4.20   4.61 -999 -999 -999  86.2  80.4 1007.4 -9.9 -9.999 -99.9 -99.99 -9.99
2019/07/21 12:24 EDT    4.17   4.57 -999 -999 -999  86.4  80.4 1007.3 -9.9 -9.999 -99.9 -99.99 -9.99
2019/07/21 12:30 EDT    4.14   4.52 -999 -999 -999  85.8  80.4 1007.3 -9.9 -9.999 -99.9 -99.99 -9.99
2019/07/21 12:36 EDT    4.11   4.46 -999 -999 -999  86.2  80.4 1007.3 -9.9 -9.999 -99.9 -99.99 -9.99
2019/07/21 12:42 EDT    4.06   4.38 -999 -999 -999  85.8  80.4 1007.4 -9.9 -9.999 -99.9 -99.99 -9.99
2019/07/21 12:48 EDT    4.02   4.32 -999 -999 -999  86.4  80.4 1007.3 -9.9 -9.999 -99.9 -99.99 -9.99
2019/07/21 12:54 EDT    3.96   4.25 -999 -999 -999  86.9  80.4 1007.2 -9.9 -9.999 -99.9 -99.99 -9.99
2019/07/21 13:00 EDT    3.90   4.17 -999 -999 -999  87.1  80.6 1007.2 -9.9 -9.999 -99.9 -99.99 -9.99
2019/07/21 13:06 EDT    3.84   4.12 -999 -999 -999  88.3  80.6 1007.1 -9.9 -9.999 -99.9 -99.99 -9.99
2019/07/21 13:12 EDT    3.77   4.06 -999 -999 -999  89.2  80.6 1006.9 -9.9 -9.999 -99.9 -99.99 -9.99
2019/07/21 13:18 EDT    3.70   3.99 -999 -999 -999  88.9  80.6 1006.9 -9.9 -9.999 -99.9 -99.99 -9.99
2019/07/21 13:24 EDT    3.62   3.92 -999 -999 -999  89.2  80.6 1006.9 -9.9 -9.999 -99.9 -99.99 -9.99
2019/07/21 13:30 EDT    3.54   3.86 -999 -999 -999  90.3  80.6 1006.8 -9.9 -9.999 -99.9 -99.99 -9.99
2019/07/21 13:36 EDT    3.46   3.79 -999 -999 -999  90.3  80.6 1006.8 -9.9 -9.999 -99.9 -99.99 -9.99
2019/07/21 13:42 EDT    3.37   3.72 -999 -999 -999  89.4  80.6 1006.8 -9.9 -9.999 -99.9 -99.99 -9.99
2019/07/21 13:48 EDT    3.28   3.67 -999 -999 -999  90.3  80.6 1006.7 -9.9 -9.999 -99.9 -99.99 -9.99
2019/07/21 13:54 EDT    3.19   3.61 -999 -999 -999  90.3  80.6 1006.7 -9.9 -9.999 -99.9 -99.99 -9.99
2019/07/21 14:00 EDT    3.09   3.54 -999 -999 -999  90.0  80.4 1006.7 -9.9 -9.999 -99.9 -99.99 -9.99
2019/07/21 14:06 EDT    3.00   3.47 -999 -999 -999  89.2  80.4 1006.7 -9.9 -9.999 -99.9 -99.99 -9.99
2019/07/21 14:12 EDT    2.90   3.39 -999 -999 -999  89.8  80.2 1006.6 -9.9 -9.999 -99.9 -99.99 -9.99
2019/07/21 14:18 EDT    2.80   3.31 -999 -999 -999  91.2  80.2 1006.6 -9.9 -9.999 -99.9 -99.99 -9.99
2019/07/21 14:24 EDT    2.70   3.23 -999 -999 -999  91.2  80.2 1006.6 -9.9 -9.999 -99.9 -99.99 -9.99
2019/07/21 14:30 EDT    2.60   3.16 -999 -999 -999  91.4  80.2 1006.6 -9.9 -9.999 -99.9 -99.99 -9.99
2019/07/21 14:36 EDT    2.50   3.08 -999 -999 -999  91.6  80.2 1006.5 -9.9 -9.999 -99.9 -99.99 -9.99
2019/07/21 14:42 EDT    2.40   3.03 -999 -999 -999  91.6  80.1 1006.6 -9.9 -9.999 -99.9 -99.99 -9.99
2019/07/21 14:48 EDT    2.30   2.95 -999 -999 -999  91.8  80.1 1006.6 -9.9 -9.999 -99.9 -99.99 -9.99
2019/07/21 14:54 EDT    2.20   2.87 -999 -999 -999  91.9  80.1 1006.7 -9.9 -9.999 -99.9 -99.99 -9.99
2019/07/21 15:00 EDT    2.10   2.78 -999 -999 -999  91.9  80.1 1006.7 -9.9 -9.999 -99.9 -99.99 -9.99
2019/07/21 15:06 EDT    2.00   2.71 -999 -999 -999  91.6  80.1 1006.7 -9.9 -9.999 -99.9 -99.99 -9.99
2019/07/21 15:12 EDT    1.90   2.65 -999 -999 -999  91.9  80.1 1006.8 -9.9 -9.999 -99.9 -99.99 -9.99
2019/07/21 15:18 EDT    1.80   2.58 -999 -999 -999  91.8  80.1 1006.7 -9.9 -9.999 -99.9 -99.99 -9.99
2019/07/21 15:24 EDT    1.71   2.49 -999 -999 -999  92.1  80.1 1006.7 -9.9 -9.999 -99.9 -99.99 -9.99
2019/07/21 15:30 EDT    1.61   2.41 -999 -999 -999  90.3  80.1 1006.8 -9.9 -9.999 -99.9 -99.99 -9.99
2019/07/21 15:36 EDT    1.52   2.34 -999 -999 -999  90.1  80.1 1006.8 -9.9 -9.999 -99.9 -99.99 -9.99
2019/07/21 15:42 EDT    1.43   2.27 -999 -999 -999  92.3  80.1 1006.7 -9.9 -9.999 -99.9 -99.99 -9.99
2019/07/21 15:48 EDT    1.35   2.19 -999 -999 -999  92.5  80.1 1006.7 -9.9 -9.999 -99.9 -99.99 -9.99
2019/07/21 15:54 EDT    1.27   2.11 -999 -999 -999  93.6  80.2 1006.7 -9.9 -9.999 -99.9 -99.99 -9.99
2019/07/21 16:00 EDT    1.19   2.03 -999 -999 -999  92.1  80.2 1006.7 -9.9 -9.999 -99.9 -99.99 -9.99
2019/07/21 16:06 EDT    1.12   1.95 -999 -999 -999  91.8  80.4 1006.5 -9.9 -9.999 -99.9 -99.99 -9.99
2019/07/21 16:12 EDT    1.05   1.86 -999 -999 -999  92.1  80.4 1006.6 -9.9 -9.999 -99.9 -99.99 -9.99
2019/07/21 16:18 EDT    0.98   1.79 -999 -999 -999  91.6  80.4 1006.7 -9.9 -9.999 -99.9 -99.99 -9.99
2019/07/21 16:24 EDT    0.93   1.74 -999 -999 -999  91.8  80.4 1006.7 -9.9 -9.999 -99.9 -99.99 -9.99
2019/07/21 16:30 EDT    0.87   1.70 -999 -999 -999  90.0  80.4 1006.7 -9.9 -9.999 -99.9 -99.99 -9.99
2019/07/21 16:36 EDT    0.83   1.63 -999 -999 -999  93.4  80.4 1006.7 -9.9 -9.999 -99.9 -99.99 -9.99
2019/07/21 16:42 EDT    0.79   1.58 -999 -999 -999  93.2  80.4 1006.8 -9.9 -9.999 -99.9 -99.99 -9.99
2019/07/21 16:48 EDT    0.76   1.54 -999 -999 -999  93.9  80.4 1006.7 -9.9 -9.999 -99.9 -99.99 -9.99
2019/07/21 16:54 EDT    0.73   1.50 -999 -999 -999  94.3  80.4 1006.7 -9.9 -9.999 -99.9 -99.99 -9.99
2019/07/21 17:00 EDT    0.71   1.45 -999 -999 -999  93.0  80.2 1006.7 -9.9 -9.999 -99.9 -99.99 -9.99
2019/07/21 17:06 EDT    0.70   1.42 -999 -999 -999  92.8  80.4 1006.8 -9.9 -9.999 -99.9 -99.99 -9.99
2019/07/21 17:12 EDT    0.70   1.43 -999 -999 -999  91.8  80.4 1006.7 -9.9 -9.999 -99.9 -99.99 -9.99
2019/07/21 17:18 EDT    0.70   1.43 -999 -999 -999  93.2  80.4 1006.7 -9.9 -9.999 -99.9 -99.99 -9.99
2019/07/21 17:24 EDT    0.71   1.43 -999 -999 -999  92.3  80.6 1006.7 -9.9 -9.999 -99.9 -99.99 -9.99
2019/07/21 17:30 EDT    0.72   1.42 -999 -999 -999  92.1  80.8 1006.7 -9.9 -9.999 -99.9 -99.99 -9.99
2019/07/21 17:36 EDT    0.75   1.43 -999 -999 -999  93.2  81.0 1006.7 -9.9 -9.999 -99.9 -99.99 -9.99
2019/07/21 17:42 EDT    0.78   1.45 -999 -999 -999  92.3  81.1 1006.8 -9.9 -9.999 -99.9 -99.99 -9.99
2019/07/21 17:48 EDT    0.81   1.45 -999 -999 -999  92.7  81.5 1006.8 -9.9 -9.999 -99.9 -99.99 -9.99
2019/07/21 17:54 EDT    0.86   1.48 -999 -999 -999  92.1  82.2 1006.8 -9.9 -9.999 -99.9 -99.99 -9.99
2019/07/21 18:00 EDT    0.90   1.53 -999 -999 -999  92.5  82.2 1006.9 -9.9 -9.999 -99.9 -99.99 -9.99
2019/07/21 18:06 EDT    0.96   1.58 -999 -999 -999  91.9  82.2 1007.0 -9.9 -9.999 -99.9 -99.99 -9.99
2019/07/21 18:12 EDT    1.01   1.62 -999 -999 -999  89.8  82.2 1007.1 -9.9 -9.999 -99.9 -99.99 -9.99
2019/07/21 18:18 EDT    1.07   1.66 -999 -999 -999  90.5  82.2 1007.1 -9.9 -9.999 -99.9 -99.99 -9.99
2019/07/21 18:24 EDT    1.14   1.71 -999 -999 -999  90.5  82.2 1007.2 -9.9 -9.999 -99.9 -99.99 -9.99
2019/07/21 18:30 EDT    1.20   1.76 -999 -999 -999  91.0  82.2 1007.2 -9.9 -9.999 -99.9 -99.99 -9.99
2019/07/21 18:36 EDT    1.27   1.81 -999 -999 -999  91.4  82.0 1007.3 -9.9 -9.999 -99.9 -99.99 -9.99
2019/07/21 18:42 EDT    1.34   1.87 -999 -999 -999  90.3  82.0 1007.3 -9.9 -9.999 -99.9 -99.99 -9.99
2019/07/21 18:48 EDT    1.41   1.93 -999 -999 -999  88.7  81.9 1007.3 -9.9 -9.999 -99.9 -99.99 -9.99
2019/07/21 18:54 EDT    1.48   2.01 -999 -999 -999  90.7  82.0 1007.4 -9.9 -9.999 -99.9 -99.99 -9.99
2019/07/21 19:00 EDT    1.55   2.07 -999 -999 -999  89.8  82.2 1007.5 -9.9 -9.999 -99.9 -99.99 -9.99
2019/07/21 19:06 EDT    1.62   2.13 -999 -999 -999  88.0  82.4 1007.6 -9.9 -9.999 -99.9 -99.99 -9.99
2019/07/21 19:12 EDT    1.69   2.19 -999 -999 -999  90.0  82.4 1007.7 -9.9 -9.999 -99.9 -99.99 -9.99
2019/07/21 19:18 EDT    1.76   2.26 -999 -999 -999  90.9  82.4 1007.8 -9.9 -9.999 -99.9 -99.99 -9.99
2019/07/21 19:24 EDT    1.82   2.31 -999 -999 -999  90.7  82.4 1007.9 -9.9 -9.999 -99.9 -99.99 -9.99
2019/07/21 19:30 EDT    1.88   2.36 -999 -999 -999  90.0  82.4 1007.9 -9.9 -9.999 -99.9 -99.99 -9.99
2019/07/21 19:36 EDT    1.94   2.43 -999 -999 -999  88.9  82.4 1008.0 -9.9 -9.999 -99.9 -99.99 -9.99
2019/07/21 19:42 EDT    2.00   2.50 -999 -999 -999  88.7  82.4 1007.9 -9.9 -9.999 -99.9 -99.99 -9.99
2019/07/21 19:48 EDT    2.06   2.55 -999 -999 -999  89.2  82.4 1008.0 -9.9 -9.999 -99.9 -99.99 -9.99
2019/07/21 19:54 EDT    2.11   2.60 -999 -999 -999  87.8  82.4 1008.1 -9.9 -9.999 -99.9 -99.99 -9.99
2019/07/21 20:00 EDT    2.16   2.67 -999 -999 -999  87.8  82.4 1008.1 -9.9 -9.999 -99.9 -99.99 -9.99
2019/07/21 20:06 EDT    2.21   2.73 -999 -999 -999  88.3  82.2 1008.1 -9.9 -9.999 -99.9 -99.99 -9.99
2019/07/21 20:12 EDT    2.26   2.79 -999 -999 -999  87.8  82.2 1008.2 -9.9 -9.999 -99.9 -99.99 -9.99
2019/07/21 20:18 EDT    2.30   2.84 -999 -999 -999  88.5  82.2 1008.3 -9.9 -9.999 -99.9 -99.99 -9.99
2019/07/21 20:24 EDT    2.35   2.90 -999 -999 -999  88.3  82.0 1008.4 -9.9 -9.999 -99.9 -99.99 -9.99
2019/07/21 20:30 EDT    2.39   2.95 -999 -999 -999  88.2  82.0 1008.5 -9.9 -9.999 -99.9 -99.99 -9.99
2019/07/21 20:36 EDT    2.43   2.99 -999 -999 -999  87.6  82.0 1008.5 -9.9 -9.999 -99.9 -99.99 -9.99
2019/07/21 20:42 EDT    2.47   3.03 -999 -999 -999  87.3  81.9 1008.5 -9.9 -9.999 -99.9 -99.99 -9.99
2019/07/21 20:48 EDT    2.51   3.07 -999 -999 -999  87.4  81.9 1008.7 -9.9 -9.999 -99.9 -99.99 -9.99
2019/07/21 20:54 EDT    2.55   3.11 -999 -999 -999  86.9  81.9 1008.8 -9.9 -9.999 -99.9 -99.99 -9.99
2019/07/21 21:00 EDT    2.59   3.15 -999 -999 -999  86.5  81.9 1008.8 -9.9 -9.999 -99.9 -99.99 -9.99
2019/07/21 21:06 EDT    2.64   3.17 -999 -999 -999  86.5  81.9 1008.9 -9.9 -9.999 -99.9 -99.99 -9.99
2019/07/21 21:12 EDT    2.68   3.22 -999 -999 -999  86.5  82.0 1009.0 -9.9 -9.999 -99.9 -99.99 -9.99
2019/07/21 21:18 EDT    2.72   3.26 -999 -999 -999  86.4  82.0 1009.0 -9.9 -9.999 -99.9 -99.99 -9.99
2019/07/21 21:24 EDT    2.77   3.31 -999 -999 -999  86.2  82.0 1009.0 -9.9 -9.999 -99.9 -99.99 -9.99
2019/07/21 21:30 EDT    2.82   3.35 -999 -999 -999  86.4  82.0 1009.0 -9.9 -9.999 -99.9 -99.99 -9.99
2019/07/21 21:36 EDT    2.87   3.40 -999 -999 -999  86.5  82.0 1009.0 -9.9 -9.999 -99.9 -99.99 -9.99
2019/07/21 21:42 EDT    2.93   3.46 -999 -999 -999  86.5  82.2 1009.0 -9.9 -9.999 -99.9 -99.99 -9.99
2019/07/21 21:48 EDT    2.98   3.52 -999 -999 -999  86.0  82.2 1009.1 -9.9 -9.999 -99.9 -99.99 -9.99
2019/07/21 21:54 EDT    3.04   3.56 -999 -999 -999  85.5  82.2 1009.1 -9.9 -9.999 -99.9 -99.99 -9.99
2019/07/21 22:00 EDT    3.11   3.60 -999 -999 -999  84.9  82.2 1009.2 -9.9 -9.999 -99.9 -99.99 -9.99
2019/07/21 22:06 EDT    3.17   3.66 -999 -999 -999  84.7  82.2 1009.1 -9.9 -9.999 -99.9 -99.99 -9.99
2019/07/21 22:12 EDT    3.23   3.72 -999 -999 -999  84.9  82.2 1009.2 -9.9 -9.999 -99.9 -99.99 -9.99
2019/07/21 22:18 EDT    3.30   3.77 -999 -999 -999  85.1  82.2 1009.3 -9.9 -9.999 -99.9 -99.99 -9.99
2019/07/21 22:24 EDT    3.37   3.83 -999 -999 -999  84.6  82.2 1009.3 -9.9 -9.999 -99.9 -99.99 -9.99
2019/07/21 22:30 EDT    3.44   3.88 -999 -999 -999  84.4  82.0 1009.4 -9.9 -9.999 -99.9 -99.99 -9.99
2019/07/21 22:36 EDT    3.51   3.94 -999 -999 -999  84.6  82.0 1009.6 -9.9 -9.999 -99.9 -99.99 -9.99
2019/07/21 22:42 EDT    3.57   3.99 -999 -999 -999  84.7  82.0 1009.6 -9.9 -9.999 -99.9 -99.99 -9.99
2019/07/21 22:48 EDT    3.64   4.05 -999 -999 -999  85.1  82.0 1009.6 -9.9 -9.999 -99.9 -99.99 -9.99
2019/07/21 22:54 EDT    3.71   4.11 -999 -999 -999  85.5  82.0 1009.6 -9.9 -9.999 -99.9 -99.99 -9.99
2019/07/21 23:00 EDT    3.77   4.16 -999 -999 -999  85.3  82.0 1009.5 -9.9 -9.999 -99.9 -99.99 -9.99
2019/07/21 23:06 EDT    3.84   4.22 -999 -999 -999  85.3  82.0 1009.5 -9.9 -9.999 -99.9 -99.99 -9.99
2019/07/21 23:12 EDT    3.90   4.28 -999 -999 -999  85.3  82.0 1009.4 -9.9 -9.999 -99.9 -99.99 -9.99
2019/07/21 23:18 EDT    3.95   4.32 -999 -999 -999  85.1  82.0 1009.5 -9.9 -9.999 -99.9 -99.99 -9.99
2019/07/21 23:24 EDT    4.00   4.36 -999 -999 -999  84.7  82.0 1009.3 -9.9 -9.999 -99.9 -99.99 -9.99
2019/07/21 23:30 EDT    4.05   4.41 -999 -999 -999  84.6  82.0 1009.3 -9.9 -9.999 -99.9 -99.99 -9.99
2019/07/21 23:36 EDT    4.09   4.45 -999 -999 -999  84.2  82.0 1009.3 -9.9 -9.999 -99.9 -99.99 -9.99
2019/07/21 23:42 EDT    4.13   4.48 -999 -999 -999  84.2  82.0 1009.3 -9.9 -9.999 -99.9 -99.99 -9.99
2019/07/21 23:48 EDT    4.16   4.51 -999 -999 -999  84.0  82.0 1009.5 -9.9 -9.999 -99.9 -99.99 -9.99
2019/07/21 23:54 EDT    4.19   4.56 -999 -999 -999  84.2  82.0 1009.6 -9.9 -9.999 -99.9 -99.99 -9.99
2019/07/22 00:00 EDT    4.20   4.59 -999 -999 -999  83.7  82.0 1009.8 -9.9 -9.999 -99.9 -99.99 -9.99
2019/07/22 00:06 EDT    4.22   4.62 -999 -999 -999  83.5  82.0 1009.8 -9.9 -9.999 -99.9 -99.99 -9.99
2019/07/22 00:12 EDT    4.22   4.64 -999 -999 -999  83.5  82.0 1009.9 -9.9 -9.999 -99.9 -99.99 -9.99
2019/07/22 00:18 EDT    4.22   4.65 -999 -999 -999  83.5  82.0 1010.0 -9.9 -9.999 -99.9 -99.99 -9.99
2019/07/22 00:24 EDT    4.21   4.66 -999 -999 -999  83.5  82.0 1010.0 -9.9 -9.999 -99.9 -99.99 -9.99
2019/07/22 00:30 EDT    4.19   4.67 -999 -999 -999  83.3  82.0 1010.0 -9.9 -9.999 -99.9 -99.99 -9.99
2019/07/22 00:36 EDT    4.17   4.67 -999 -999 -999  83.3  82.0 1010.0 -9.9 -9.999 -99.9 -99.99 -9.99
2019/07/22 00:42 EDT    4.14   4.67 -999 -999 -999  83.1  82.0 1009.9 -9.9 -9.999 -99.9 -99.99 -9.99
2019/07/22 00:48 EDT    4.10   4.66 -999 -999 -999  82.9  82.2 1010.0 -9.9 -9.999 -99.9 -99.99 -9.99
2019/07/22 00:54 EDT    4.06   4.64 -999 -999 -999  82.9  82.2 1010.0 -9.9 -9.999 -99.9 -99.99 -9.99
2019/07/22 01:00 EDT    4.01   4.59 -999 -999 -999  82.6  82.2 1010.0 -9.9 -9.999 -99.9 -99.99 -9.99
2019/07/22 01:06 EDT    3.96   4.55 -999 -999 -999  82.4  82.2 1009.9 -9.9 -9.999 -99.9 -99.99 -9.99
2019/07/22 01:12 EDT    3.90   4.51 -999 -999 -999  82.4  82.2 1009.9 -9.9 -9.999 -99.9 -99.99 -9.99
2019/07/22 01:18 EDT    3.83   4.47 -999 -999 -999  82.2  82.2 1009.9 -9.9 -9.999 -99.9 -99.99 -9.99
2019/07/22 01:24 EDT    3.76   4.42 -999 -999 -999  81.9  82.2 1010.0 -9.9 -9.999 -99.9 -99.99 -9.99
2019/07/22 01:30 EDT    3.69   4.35 -999 -999 -999  81.7  82.2 1010.1 -9.9 -9.999 -99.9 -99.99 -9.99
2019/07/22 01:36 EDT    3.61   4.30 -999 -999 -999  81.7  82.2 1010.2 -9.9 -9.999 -99.9 -99.99 -9.99
2019/07/22 01:42 EDT    3.52   4.25 -999 -999 -999  81.5  82.2 1010.3 -9.9 -9.999 -99.9 -99.99 -9.99
2019/07/22 01:48 EDT    3.44   4.16 -999 -999 -999  81.5  82.2 1010.3 -9.9 -9.999 -99.9 -99.99 -9.99
2019/07/22 01:54 EDT    3.35   4.07 -999 -999 -999  81.5  82.2 1010.3 -9.9 -9.999 -99.9 -99.99 -9.99
2019/07/22 02:00 EDT    3.26   3.96 -999 -999 -999  81.5  82.2 1010.2 -9.9 -9.999 -99.9 -99.99 -9.99
2019/07/22 02:06 EDT    3.16   3.82 -999 -999 -999  81.1  82.2 1010.2 -9.9 -9.999 -99.9 -99.99 -9.99
2019/07/22 02:12 EDT    3.07   3.70 -999 -999 -999  80.8  82.2 1010.4 -9.9 -9.999 -99.9 -99.99 -9.99
2019/07/22 02:18 EDT    2.97   3.61 -999 -999 -999  80.6  82.2 1010.3 -9.9 -9.999 -99.9 -99.99 -9.99
2019/07/22 02:24 EDT    2.87   3.51 -999 -999 -999  80.6  82.2 1010.3 -9.9 -9.999 -99.9 -99.99 -9.99
2019/07/22 02:30 EDT    2.77   3.39 -999 -999 -999  80.4  82.2 1010.3 -9.9 -9.999 -99.9 -99.99 -9.99
2019/07/22 02:36 EDT    2.67   3.27 -999 -999 -999  80.2  82.2 1010.3 -9.9 -9.999 -99.9 -99.99 -9.99
2019/07/22 02:42 EDT    2.56   3.14 -999 -999 -999  80.2  82.2 1010.2 -9.9 -9.999 -99.9 -99.99 -9.99
2019/07/22 02:48 EDT    2.46   2.99 -999 -999 -999  80.1  82.0 1010.2 -9.9 -9.999 -99.9 -99.99 -9.99
2019/07/22 02:54 EDT    2.36   2.84 -999 -999 -999  79.7  82.0 1010.2 -9.9 -9.999 -99.9 -99.99 -9.99
2019/07/22 03:00 EDT    2.25   2.72 -999 -999 -999  79.7  82.0 1010.2 -9.9 -9.999 -99.9 -99.99 -9.99
2019/07/22 03:06 EDT    2.15   2.62 -999 -999 -999  79.3  81.9 1010.3 -9.9 -9.999 -99.9 -99.99 -9.99
2019/07/22 03:12 EDT    2.05   2.52 -999 -999 -999  79.2  81.9 1010.3 -9.9 -9.999 -99.9 -99.99 -9.99
2019/07/22 03:18 EDT    1.95   2.43 -999 -999 -999  79.2  81.9 1010.3 -9.9 -9.999 -99.9 -99.99 -9.99
2019/07/22 03:24 EDT    1.85   2.31 -999 -999 -999  79.2  82.0 1010.2 -9.9 -9.999 -99.9 -99.99 -9.99
2019/07/22 03:30 EDT    1.75   2.19 -999 -999 -999  79.2  82.0 1010.3 -9.9 -9.999 -99.9 -99.99 -9.99
2019/07/22 03:36 EDT    1.65   2.09 -999 -999 -999  79.0  82.0 1010.3 -9.9 -9.999 -99.9 -99.99 -9.99
2019/07/22 03:42 EDT    1.55   2.00 -999 -999 -999  78.6  82.0 1010.3 -9.9 -9.999 -99.9 -99.99 -9.99
2019/07/22 03:48 EDT    1.46   1.93 -999 -999 -999  78.3  82.0 1010.2 -9.9 -9.999 -99.9 -99.99 -9.99
2019/07/22 03:54 EDT    1.36   1.88 -999 -999 -999  78.1  82.0 1010.0 -9.9 -9.999 -99.9 -99.99 -9.99
2019/07/22 04:00 EDT    1.27   1.81 -999 -999 -999  78.1  82.0 1009.9 -9.9 -9.999 -99.9 -99.99 -9.99
2019/07/22 04:06 EDT    1.19   1.73 -999 -999 -999  77.9  82.0 1009.8 -9.9 -9.999 -99.9 -99.99 -9.99
2019/07/22 04:12 EDT    1.11   1.61 -999 -999 -999  77.9  82.0 1009.8 -9.9 -9.999 -99.9 -99.99 -9.99
2019/07/22 04:18 EDT    1.03   1.49 -999 -999 -999  77.7  82.0 1010.1 -9.9 -9.999 -99.9 -99.99 -9.99
2019/07/22 04:24 EDT    0.95   1.35 -999 -999 -999  77.5  82.0 1010.1 -9.9 -9.999 -99.9 -99.99 -9.99
2019/07/22 04:30 EDT    0.88   1.19 -999 -999 -999  77.4  82.0 1010.1 -9.9 -9.999 -99.9 -99.99 -9.99
2019/07/22 04:36 EDT    0.81   1.07 -999 -999 -999  77.2  82.0 1010.2 -9.9 -9.999 -99.9 -99.99 -9.99
2019/07/22 04:42 EDT    0.75   0.97 -999 -999 -999  77.0  81.9 1010.3 -9.9 -9.999 -99.9 -99.99 -9.99
2019/07/22 04:48 EDT    0.70   0.95 -999 -999 -999  77.0  81.7 1010.4 -9.9 -9.999 -99.9 -99.99 -9.99
2019/07/22 04:54 EDT    0.65   0.95 -999 -999 -999  77.0  81.7 1010.3 -9.9 -9.999 -99.9 -99.99 -9.99
2019/07/22 05:00 EDT    0.61   0.97 -999 -999 -999  77.0  81.7 1010.4 -9.9 -9.999 -99.9 -99.99 -9.99
2019/07/22 05:06 EDT    0.57   0.97 -999 -999 -999  77.4  81.5 1010.5 -9.9 -9.999 -99.9 -99.99 -9.99
2019/07/22 05:12 EDT    0.54   0.93 -999 -999 -999  77.4  81.5 1010.7 -9.9 -9.999 -99.9 -99.99 -9.99
2019/07/22 05:18 EDT    0.52   0.87 -999 -999 -999  77.5  81.7 1010.7 -9.9 -9.999 -99.9 -99.99 -9.99
2019/07/22 05:24 EDT    0.50 -99.99 -999 -999 -999 -99.9 -99.9 -999.9 -9.9 -9.999 -99.9 -99.99 -9.99
2019/07/22 05:30 EDT    0.49 -99.99 -999 -999 -999 -99.9 -99.9 -999.9 -9.9 -9.999 -99.9 -99.99 -9.99
2019/07/22 05:36 EDT    0.49 -99.99 -999 -999 -999 -99.9 -99.9 -999.9 -9.9 -9.999 -99.9 -99.99 -9.99
2019/07/22 05:42 EDT    0.50 -99.99 -999 -999 -999 -99.9 -99.9 -999.9 -9.9 -9.999 -99.9 -99.99 -9.99
2019/07/22 05:48 EDT    0.51 -99.99 -999 -999 -999 -99.9 -99.9 -999.9 -9.9 -9.999 -99.9 -99.99 -9.99
2019/07/22 05:54 EDT    0.53 -99.99 -999 -999 -999 -99.9 -99.9 -999.9 -9.9 -9.999 -99.9 -99.99 -9.99
2019/07/22 06:00 EDT    0.55 -99.99 -999 -999 -999 -99.9 -99.9 -999.9 -9.9 -9.999 -99.9 -99.99 -9.99
2019/07/22 06:06 EDT    0.58 -99.99 -999 -999 -999 -99.9 -99.9 -999.9 -9.9 -9.999 -99.9 -99.99 -9.99
2019/07/22 06:12 EDT    0.62 -99.99 -999 -999 -999 -99.9 -99.9 -999.9 -9.9 -9.999 -99.9 -99.99 -9.99
2019/07/22 06:18 EDT    0.66 -99.99 -999 -999 -999 -99.9 -99.9 -999.9 -9.9 -9.999 -99.9 -99.99 -9.99
2019/07/22 06:24 EDT    0.71 -99.99 -999 -999 -999 -99.9 -99.9 -999.9 -9.9 -9.999 -99.9 -99.99 -9.99
2019/07/22 06:30 EDT    0.76 -99.99 -999 -999 -999 -99.9 -99.9 -999.9 -9.9 -9.999 -99.9 -99.99 -9.99
2019/07/22 06:36 EDT    0.82 -99.99 -999 -999 -999 -99.9 -99.9 -999.9 -9.9 -9.999 -99.9 -99.99 -9.99
2019/07/22 06:42 EDT    0.88 -99.99 -999 -999 -999 -99.9 -99.9 -999.9 -9.9 -9.999 -99.9 -99.99 -9.99
2019/07/22 06:48 EDT    0.94 -99.99 -999 -999 -999 -99.9 -99.9 -999.9 -9.9 -9.999 -99.9 -99.99 -9.99
2019/07/22 06:54 EDT    1.01 -99.99 -999 -999 -999 -99.9 -99.9 -999.9 -9.9 -9.999 -99.9 -99.99 -9.99
2019/07/22 07:00 EDT    1.07 -99.99 -999 -999 -999 -99.9 -99.9 -999.9 -9.9 -9.999 -99.9 -99.99 -9.99
2019/07/22 07:06 EDT    1.14 -99.99 -999 -999 -999 -99.9 -99.9 -999.9 -9.9 -9.999 -99.9 -99.99 -9.99
2019/07/22 07:12 EDT    1.21 -99.99 -999 -999 -999 -99.9 -99.9 -999.9 -9.9 -9.999 -99.9 -99.99 -9.99
2019/07/22 07:18 EDT    1.28 -99.99 -999 -999 -999 -99.9 -99.9 -999.9 -9.9 -9.999 -99.9 -99.99 -9.99
2019/07/22 07:24 EDT    1.35 -99.99 -999 -999 -999 -99.9 -99.9 -999.9 -9.9 -9.999 -99.9 -99.99 -9.99
2019/07/22 07:30 EDT    1.42 -99.99 -999 -999 -999 -99.9 -99.9 -999.9 -9.9 -9.999 -99.9 -99.99 -9.99
2019/07/22 07:36 EDT    1.48 -99.99 -999 -999 -999 -99.9 -99.9 -999.9 -9.9 -9.999 -99.9 -99.99 -9.99
2019/07/22 07:42 EDT    1.55 -99.99 -999 -999 -999 -99.9 -99.9 -999.9 -9.9 -9.999 -99.9 -99.99 -9.99
2019/07/22 07:48 EDT    1.61 -99.99 -999 -999 -999 -99.9 -99.9 -999.9 -9.9 -9.999 -99.9 -99.99 -9.99
2019/07/22 07:54 EDT    1.67 -99.99 -999 -999 -999 -99.9 -99.9 -999.9 -9.9 -9.999 -99.9 -99.99 -9.99
2019/07/22 08:00 EDT    1.73 -99.99 -999 -999 -999 -99.9 -99.9 -999.9 -9.9 -9.999 -99.9 -99.99 -9.99
2019/07/22 08:06 EDT    1.79 -99.99 -999 -999 -999 -99.9 -99.9 -999.9 -9.9 -9.999 -99.9 -99.99 -9.99
2019/07/22 08:12 EDT    1.84 -99.99 -999 -999 -999 -99.9 -99.9 -999.9 -9.9 -9.999 -99.9 -99.99 -9.99
2019/07/22 08:18 EDT    1.89 -99.99 -999 -999 -999 -99.9 -99.9 -999.9 -9.9 -9.999 -99.9 -99.99 -9.99
2019/07/22 08:24 EDT    1.94 -99.99 -999 -999 -999 -99.9 -99.9 -999.9 -9.9 -9.999 -99.9 -99.99 -9.99
2019/07/22 08:30 EDT    1.99 -99.99 -999 -999 -999 -99.9 -99.9 -999.9 -9.9 -9.999 -99.9 -99.99 -9.99
2019/07/22 08:36 EDT    2.04 -99.99 -999 -999 -999 -99.9 -99.9 -999.9 -9.9 -9.999 -99.9 -99.99 -9.99
2019/07/22 08:42 EDT    2.08 -99.99 -999 -999 -999 -99.9 -99.9 -999.9 -9.9 -9.999 -99.9 -99.99 -9.99
2019/07/22 08:48 EDT    2.13 -99.99 -999 -999 -999 -99.9 -99.9 -999.9 -9.9 -9.999 -99.9 -99.99 -9.99
2019/07/22 08:54 EDT    2.17 -99.99 -999 -999 -999 -99.9 -99.9 -999.9 -9.9 -9.999 -99.9 -99.99 -9.99
2019/07/22 09:00 EDT    2.21 -99.99 -999 -999 -999 -99.9 -99.9 -999.9 -9.9 -9.999 -99.9 -99.99 -9.99
2019/07/22 09:06 EDT    2.25 -99.99 -999 -999 -999 -99.9 -99.9 -999.9 -9.9 -9.999 -99.9 -99.99 -9.99
2019/07/22 09:12 EDT    2.30 -99.99 -999 -999 -999 -99.9 -99.9 -999.9 -9.9 -9.999 -99.9 -99.99 -9.99
2019/07/22 09:18 EDT    2.34 -99.99 -999 -999 -999 -99.9 -99.9 -999.9 -9.9 -9.999 -99.9 -99.99 -9.99
2019/07/22 09:24 EDT    2.38 -99.99 -999 -999 -999 -99.9 -99.9 -999.9 -9.9 -9.999 -99.9 -99.99 -9.99
2019/07/22 09:30 EDT    2.43 -99.99 -999 -999 -999 -99.9 -99.9 -999.9 -9.9 -9.999 -99.9 -99.99 -9.99
2019/07/22 09:36 EDT    2.48 -99.99 -999 -999 -999 -99.9 -99.9 -999.9 -9.9 -9.999 -99.9 -99.99 -9.99
2019/07/22 09:42 EDT    2.53 -99.99 -999 -999 -999 -99.9 -99.9 -999.9 -9.9 -9.999 -99.9 -99.99 -9.99
2019/07/22 09:48 EDT    2.58 -99.99 -999 -999 -999 -99.9 -99.9 -999.9 -9.9 -9.999 -99.9 -99.99 -9.99
2019/07/22 09:54 EDT    2.63 -99.99 -999 -999 -999 -99.9 -99.9 -999.9 -9.9 -9.999 -99.9 -99.99 -9.99
2019/07/22 10:00 EDT    2.69 -99.99 -999 -999 -999 -99.9 -99.9 -999.9 -9.9 -9.999 -99.9 -99.99 -9.99
2019/07/22 10:06 EDT    2.75 -99.99 -999 -999 -999 -99.9 -99.9 -999.9 -9.9 -9.999 -99.9 -99.99 -9.99
2019/07/22 10:12 EDT    2.81 -99.99 -999 -999 -999 -99.9 -99.9 -999.9 -9.9 -9.999 -99.9 -99.99 -9.99
2019/07/22 10:18 EDT    2.87 -99.99 -999 -999 -999 -99.9 -99.9 -999.9 -9.9 -9.999 -99.9 -99.99 -9.99
2019/07/22 10:24 EDT    2.94 -99.99 -999 -999 -999 -99.9 -99.9 -999.9 -9.9 -9.999 -99.9 -99.99 -9.99
2019/07/22 10:30 EDT    3.01 -99.99 -999 -999 -999 -99.9 -99.9 -999.9 -9.9 -9.999 -99.9 -99.99 -9.99
2019/07/22 10:36 EDT    3.08 -99.99 -999 -999 -999 -99.9 -99.9 -999.9 -9.9 -9.999 -99.9 -99.99 -9.99
2019/07/22 10:42 EDT    3.15 -99.99 -999 -999 -999 -99.9 -99.9 -999.9 -9.9 -9.999 -99.9 -99.99 -9.99
2019/07/22 10:48 EDT    3.22 -99.99 -999 -999 -999 -99.9 -99.9 -999.9 -9.9 -9.999 -99.9 -99.99 -9.99
2019/07/22 10:54 EDT    3.29 -99.99 -999 -999 -999 -99.9 -99.9 -999.9 -9.9 -9.999 -99.9 -99.99 -9.99
2019/07/22 11:00 EDT    3.37 -99.99 -999 -999 -999 -99.9 -99.9 -999.9 -9.9 -9.999 -99.9 -99.99 -9.99
2019/07/22 11:06 EDT    3.44 -99.99 -999 -999 -999 -99.9 -99.9 -999.9 -9.9 -9.999 -99.9 -99.99 -9.99
2019/07/22 11:12 EDT    3.51 -99.99 -999 -999 -999 -99.9 -99.9 -999.9 -9.9 -9.999 -99.9 -99.99 -9.99
2019/07/22 11:18 EDT    3.59 -99.99 -999 -999 -999 -99.9 -99.9 -999.9 -9.9 -9.999 -99.9 -99.99 -9.99
2019/07/22 11:24 EDT    3.65 -99.99 -999 -999 -999 -99.9 -99.9 -999.9 -9.9 -9.999 -99.9 -99.99 -9.99
2019/07/22 11:30 EDT    3.72 -99.99 -999 -999 -999 -99.9 -99.9 -999.9 -9.9 -9.999 -99.9 -99.99 -9.99
2019/07/22 11:36 EDT    3.78 -99.99 -999 -999 -999 -99.9 -99.9 -999.9 -9.9 -9.999 -99.9 -99.99 -9.99

Revised: 08/08/2018
NOAA / National Ocean Service
Web site owner: Center for Operational Oceanographic Products and Services